createdAt,value
2023-05-09T00:01:24.570Z,98220.69
2023-05-09T00:03:52.322Z,98227.00
2023-05-09T00:06:19.816Z,98215.31
2023-05-09T00:08:46.564Z,98213.63
2023-05-09T00:11:13.282Z,98210.63
2023-05-09T00:13:40.060Z,98214.56
2023-05-09T00:16:07.137Z,98211.84
2023-05-09T00:18:34.065Z,98214.56
2023-05-09T00:21:02.447Z,98211.47
2023-05-09T00:23:29.116Z,98206.09
2023-05-09T00:25:56.376Z,98197.63
2023-05-09T00:28:22.997Z,98202.03
2023-05-09T00:30:49.658Z,98202.59
2023-05-09T00:33:16.343Z,98202.81
2023-05-09T00:35:42.995Z,98199.97
2023-05-09T00:38:09.686Z,98192.59
2023-05-09T00:40:36.367Z,98198.34
2023-05-09T00:43:03.089Z,98192.13
2023-05-09T00:45:29.760Z,98195.72
2023-05-09T00:47:57.517Z,98195.91
2023-05-09T00:50:24.830Z,98189.25
2023-05-09T00:52:51.801Z,98193.63
2023-05-09T00:55:19.298Z,98194.72
2023-05-09T00:57:46.052Z,98191.97
2023-05-09T01:00:13.661Z,98188.19
2023-05-09T01:02:46.771Z,98185.66
2023-05-09T01:05:15.185Z,98191.16
2023-05-09T01:07:44.838Z,98180.03
2023-05-09T01:10:21.447Z,98178.41
2023-05-09T01:13:04.435Z,98178.16
2023-05-09T01:15:43.279Z,98171.09
2023-05-09T01:18:19.609Z,98171.09
2023-05-09T01:20:51.963Z,98176.66
2023-05-09T01:23:28.014Z,98171.41
2023-05-09T01:26:06.910Z,98175.69
2023-05-09T01:29:11.197Z,98181.53
2023-05-09T01:31:41.858Z,98171.88
2023-05-09T01:34:11.313Z,98167.81
2023-05-09T01:36:41.295Z,98168.53
2023-05-09T01:39:12.664Z,98176.41
2023-05-09T01:41:39.760Z,98170.91
2023-05-09T01:44:10.320Z,98177.13
2023-05-09T01:46:38.146Z,98175.56
2023-05-09T01:49:07.716Z,98166.03
2023-05-09T01:51:36.700Z,98175.22
2023-05-09T01:54:05.383Z,98166.50
2023-05-09T01:56:32.768Z,98172.59
2023-05-09T01:59:02.308Z,98172.59
2023-05-09T02:01:30.481Z,98168.16
2023-05-09T02:03:57.546Z,98164.00
2023-05-09T02:06:24.865Z,98164.47
2023-05-09T02:08:51.845Z,98164.47
2023-05-09T02:11:18.644Z,98170.91
2023-05-09T02:13:45.330Z,98180.22
2023-05-09T02:16:12.211Z,98180.94
2023-05-09T02:18:38.957Z,98169.63
2023-05-09T02:21:06.460Z,98180.94
2023-05-09T02:23:33.297Z,98176.63
2023-05-09T02:26:00.664Z,98184.50
2023-05-09T02:28:28.865Z,98174.72
2023-05-09T02:30:58.830Z,98179.50
2023-05-09T02:33:27.267Z,98174.16
2023-05-09T02:35:55.340Z,98173.78
2023-05-09T02:38:22.371Z,98175.44
2023-05-09T02:40:52.374Z,98181.50
2023-05-09T02:43:19.506Z,98175.44
2023-05-09T02:45:46.242Z,98171.59
2023-05-09T02:48:12.986Z,98171.81
2023-05-09T02:50:42.826Z,98170.66
2023-05-09T02:53:09.808Z,98167.56
2023-05-09T02:55:36.492Z,98172.09
2023-05-09T02:58:13.347Z,98168.16
2023-05-09T03:00:41.008Z,98160.28
2023-05-09T03:03:08.976Z,98169.13
2023-05-09T03:05:35.776Z,98168.88
2023-05-09T03:08:02.485Z,98172.56
2023-05-09T03:10:30.243Z,98177.81
2023-05-09T03:12:56.928Z,98181.53
2023-05-09T03:15:23.671Z,98181.06
2023-05-09T03:17:50.441Z,98181.66
2023-05-09T03:20:17.303Z,98177.34
2023-05-09T03:22:43.951Z,98174.25
2023-05-09T03:25:12.088Z,98173.44
2023-05-09T03:27:38.965Z,98173.78
2023-05-09T03:30:09.512Z,98172.94
2023-05-09T03:32:36.431Z,98179.34
2023-05-09T03:35:03.350Z,98186.50
2023-05-09T03:37:30.303Z,98183.75
2023-05-09T03:39:56.937Z,98186.50
2023-05-09T03:42:24.208Z,98176.25
2023-05-09T03:44:55.031Z,98182.09
2023-05-09T03:47:22.090Z,98188.19
2023-05-09T03:49:49.698Z,98202.13
2023-05-09T03:52:19.860Z,98193.84
2023-05-09T03:54:47.285Z,98194.25
2023-05-09T03:57:14.335Z,98197.53
2023-05-09T03:59:41.160Z,98203.47
2023-05-09T04:02:08.481Z,98195.72
2023-05-09T04:04:35.310Z,98202.28
2023-05-09T04:07:02.378Z,98201.22
2023-05-09T04:09:30.369Z,98203.84
2023-05-09T04:11:57.018Z,98213.03
2023-05-09T04:14:23.843Z,98214.44
2023-05-09T04:16:51.280Z,98204.31
2023-05-09T04:19:17.993Z,98210.03
2023-05-09T04:21:44.621Z,98209.09
2023-05-09T04:24:11.675Z,98216.50
2023-05-09T04:26:42.426Z,98215.66
2023-05-09T04:29:12.488Z,98212.66
2023-05-09T04:31:39.429Z,98210.50
2023-05-09T04:34:07.921Z,98217.31
2023-05-09T04:36:37.255Z,98215.03
2023-05-09T04:39:05.283Z,98213.00
2023-05-09T04:41:33.500Z,98217.66
2023-05-09T04:44:00.844Z,98212.66
2023-05-09T04:46:27.884Z,98206.19
2023-05-09T04:48:54.912Z,98211.22
2023-05-09T04:51:21.652Z,98216.72
2023-05-09T04:53:48.370Z,98206.56
2023-05-09T04:56:17.679Z,98203.69
2023-05-09T04:58:45.875Z,98210.47
2023-05-09T05:01:12.659Z,98215.28
2023-05-09T05:03:39.939Z,98210.22
2023-05-09T05:06:06.924Z,98217.38
2023-05-09T05:08:35.029Z,98217.66
2023-05-09T05:11:01.829Z,98206.50
2023-05-09T05:13:28.524Z,98217.16
2023-05-09T05:15:59.045Z,98207.59
2023-05-09T05:18:25.988Z,98221.72
2023-05-09T05:20:53.495Z,98222.91
2023-05-09T05:23:20.891Z,98228.88
2023-05-09T05:25:49.813Z,98226.25
2023-05-09T05:28:16.997Z,98223.00
2023-05-09T05:30:44.375Z,98222.88
2023-05-09T05:33:11.410Z,98230.16
2023-05-09T05:35:38.811Z,98225.25
2023-05-09T05:38:05.508Z,98221.16
2023-05-09T05:40:32.288Z,98225.34
2023-05-09T05:43:02.640Z,98221.88
2023-05-09T05:45:31.317Z,98220.22
2023-05-09T05:47:59.363Z,98221.59
2023-05-09T05:50:26.046Z,98218.13
2023-05-09T05:52:53.776Z,98224.16
2023-05-09T05:55:20.605Z,98228.31
2023-05-09T05:57:47.754Z,98229.13
2023-05-09T06:00:16.582Z,98229.72
2023-05-09T06:02:52.357Z,98223.38
2023-05-09T06:05:34.951Z,98224.88
2023-05-09T06:08:01.646Z,98221.78
2023-05-09T06:10:28.346Z,98218.13
2023-05-09T06:12:55.653Z,98213.59
2023-05-09T06:15:22.712Z,98223.63
2023-05-09T06:17:50.437Z,98225.16
2023-05-09T06:20:17.343Z,98226.56
2023-05-09T06:22:44.004Z,98222.56
2023-05-09T06:25:10.838Z,98218.97
2023-05-09T06:27:38.386Z,98215.34
2023-05-09T06:30:14.147Z,98211.34
2023-05-09T06:32:44.695Z,98212.34
2023-05-09T06:35:11.373Z,98215.75
2023-05-09T06:37:38.050Z,98217.16
2023-05-09T06:40:05.246Z,98217.44
2023-05-09T06:42:33.699Z,98205.19
2023-05-09T06:45:00.420Z,98202.41
2023-05-09T06:47:27.072Z,98207.38
2023-05-09T06:49:53.913Z,98203.00
2023-05-09T06:52:21.607Z,98199.34
2023-05-09T06:54:48.252Z,98199.34
2023-05-09T06:57:14.936Z,98194.91
2023-05-09T06:59:41.626Z,98194.34
2023-05-09T07:02:08.782Z,98194.22
2023-05-09T07:04:35.581Z,98198.81
2023-05-09T07:07:02.303Z,98194.31
2023-05-09T07:09:29.026Z,98198.44
2023-05-09T07:11:55.866Z,98196.00
2023-05-09T07:14:22.575Z,98190.97
2023-05-09T07:16:49.229Z,98184.59
2023-05-09T07:19:15.871Z,98190.03
2023-05-09T07:21:43.070Z,98190.88
2023-05-09T07:24:09.699Z,98190.59
2023-05-09T07:26:36.811Z,98180.03
2023-05-09T07:29:04.022Z,98184.34
2023-05-09T07:31:31.043Z,98185.59
2023-05-09T07:33:58.225Z,98179.97
2023-05-09T07:36:24.897Z,98171.53
2023-05-09T07:38:52.819Z,98168.09
2023-05-09T07:41:19.580Z,98173.00
2023-05-09T07:43:46.280Z,98164.06
2023-05-09T07:46:12.959Z,98150.97
2023-05-09T07:48:39.672Z,98164.09
2023-05-09T07:51:06.360Z,98159.69
2023-05-09T07:53:33.027Z,98165.00
2023-05-09T07:55:59.968Z,98159.72
2023-05-09T07:58:26.649Z,98156.09
2023-05-09T08:00:56.009Z,98154.09
2023-05-09T08:03:23.221Z,98153.81
2023-05-09T08:05:53.475Z,98155.78
2023-05-09T08:08:20.165Z,98153.97
2023-05-09T08:10:46.785Z,98151.91
2023-05-09T08:13:13.514Z,98145.94
2023-05-09T08:15:40.255Z,98158.97
2023-05-09T08:18:06.931Z,98142.06
2023-05-09T08:20:34.541Z,98145.00
2023-05-09T08:23:01.188Z,98142.44
2023-05-09T08:25:27.857Z,98129.66
2023-05-09T08:27:54.509Z,98126.03
2023-05-09T08:30:21.168Z,98141.06
2023-05-09T08:32:47.880Z,98131.75
2023-05-09T08:35:14.851Z,98141.63
2023-05-09T08:37:41.744Z,98132.31
2023-05-09T08:40:11.924Z,98133.06
2023-05-09T08:42:40.141Z,98139.06
2023-05-09T08:45:11.734Z,98139.25
2023-05-09T08:47:38.967Z,98138.69
2023-05-09T08:50:06.454Z,98140.50
2023-05-09T08:52:33.706Z,98146.97
2023-05-09T08:55:07.349Z,98136.84
2023-05-09T08:57:37.056Z,98150.72
2023-05-09T09:00:11.115Z,98146.75
2023-05-09T09:02:41.518Z,98147.63
2023-05-09T09:05:19.692Z,98149.78
2023-05-09T09:07:57.670Z,98150.50
2023-05-09T09:10:27.295Z,98124.34
2023-05-09T09:12:54.589Z,98133.19
2023-05-09T09:15:24.212Z,98130.25
2023-05-09T09:17:52.209Z,98124.94
2023-05-09T09:20:23.232Z,98124.66
2023-05-09T09:22:52.406Z,98124.72
2023-05-09T09:25:19.045Z,98123.19
2023-05-09T09:27:46.052Z,98124.56
2023-05-09T09:30:13.270Z,98122.28
2023-05-09T09:32:40.332Z,98120.59
2023-05-09T09:35:08.841Z,98120.47
2023-05-09T09:37:40.364Z,98122.66
2023-05-09T09:40:11.589Z,98128.44
2023-05-09T09:42:48.273Z,98127.28
2023-05-09T09:45:19.836Z,98128.78
2023-05-09T09:47:48.318Z,98119.78
2023-05-09T09:50:17.415Z,98117.78
2023-05-09T09:52:51.580Z,98119.38
2023-05-09T09:55:19.197Z,98123.38
2023-05-09T09:57:46.550Z,98111.53
2023-05-09T10:00:17.800Z,98109.88
2023-05-09T10:02:55.442Z,98112.78
2023-05-09T10:05:29.787Z,98112.13
2023-05-09T10:07:59.189Z,98108.97
2023-05-09T10:10:31.246Z,98103.53
2023-05-09T10:13:00.502Z,98104.44
2023-05-09T10:15:33.414Z,98101.25
2023-05-09T10:18:08.588Z,98100.56
2023-05-09T10:20:39.281Z,98106.50
2023-05-09T10:23:06.837Z,98099.81
2023-05-09T10:25:40.859Z,98097.16
2023-05-09T10:28:11.892Z,98096.22
2023-05-09T10:30:56.637Z,98097.56
2023-05-09T10:33:30.996Z,98100.38
2023-05-09T10:36:00.992Z,98097.59
2023-05-09T10:38:28.619Z,98098.22
2023-05-09T10:40:56.547Z,98099.88
2023-05-09T10:43:25.201Z,98098.59
2023-05-09T10:45:53.122Z,98096.72
2023-05-09T10:48:20.310Z,98101.25
2023-05-09T10:50:48.144Z,98088.22
2023-05-09T10:53:16.920Z,98085.16
2023-05-09T10:55:46.619Z,98086.84
2023-05-09T10:58:21.992Z,98074.72
2023-05-09T11:00:49.773Z,98071.72
2023-05-09T11:03:19.306Z,98066.00
2023-05-09T11:05:48.079Z,98067.53
2023-05-09T11:08:33.224Z,98064.81
2023-05-09T11:11:07.375Z,98065.84
2023-05-09T11:13:38.634Z,98057.56
2023-05-09T11:16:08.702Z,98060.59
2023-05-09T11:18:49.406Z,98050.53
2023-05-09T11:21:16.953Z,98048.53
2023-05-09T11:23:43.675Z,98044.22
2023-05-09T11:26:10.993Z,98042.94
2023-05-09T11:28:38.680Z,98039.09
2023-05-09T11:31:19.254Z,98042.84
2023-05-09T11:33:55.004Z,98036.03
2023-05-09T11:36:33.699Z,98031.28
2023-05-09T11:39:11.438Z,98026.97
2023-05-09T11:41:43.157Z,98013.06
2023-05-09T11:44:18.048Z,98018.41
2023-05-09T11:46:45.931Z,98018.34
2023-05-09T11:49:12.912Z,98018.50
2023-05-09T11:51:40.497Z,98013.56
2023-05-09T11:54:08.743Z,98014.31
2023-05-09T11:56:36.518Z,98011.00
2023-05-09T11:59:04.041Z,98013.63
2023-05-09T12:01:31.092Z,98001.47
2023-05-09T12:04:02.234Z,97999.75
2023-05-09T12:06:30.068Z,97991.44
2023-05-09T12:08:59.704Z,97994.66
2023-05-09T12:11:29.332Z,97990.34
2023-05-09T12:13:55.999Z,97998.91
2023-05-09T12:16:23.188Z,97995.75
2023-05-09T12:18:51.743Z,97986.84
2023-05-09T12:21:20.162Z,97984.34
2023-05-09T12:23:50.608Z,97988.50
2023-05-09T12:26:18.371Z,97974.78
2023-05-09T12:28:46.020Z,97976.09
2023-05-09T12:31:13.432Z,97974.63
2023-05-09T12:33:40.498Z,97973.78
2023-05-09T12:36:13.565Z,97963.06
2023-05-09T12:38:40.282Z,97965.91
2023-05-09T12:41:29.616Z,97964.38
2023-05-09T12:43:57.879Z,97956.34
2023-05-09T12:46:25.102Z,97951.00
2023-05-09T12:48:51.975Z,97948.19
2023-05-09T12:51:22.563Z,97939.41
2023-05-09T12:53:49.814Z,97938.31
2023-05-09T12:56:21.414Z,97924.41
2023-05-09T12:58:52.957Z,97931.22
2023-05-09T13:01:21.492Z,97939.44
2023-05-09T13:04:04.543Z,97925.78
2023-05-09T13:06:31.685Z,97918.44
2023-05-09T13:09:05.717Z,97909.44
2023-05-09T13:11:32.963Z,97914.13
2023-05-09T13:13:59.799Z,97910.25
2023-05-09T13:16:26.964Z,97906.63
2023-05-09T13:18:53.707Z,97898.31
2023-05-09T13:21:21.066Z,97904.28
2023-05-09T13:23:50.045Z,97905.66
2023-05-09T13:26:16.988Z,97900.69
2023-05-09T13:28:43.652Z,97890.06
2023-05-09T13:31:10.875Z,97902.28
2023-05-09T13:33:38.339Z,97891.94
2023-05-09T13:36:06.256Z,97882.34
2023-05-09T13:38:36.878Z,97892.31
2023-05-09T13:41:03.708Z,97878.91
2023-05-09T13:43:30.701Z,97881.13
2023-05-09T13:45:57.385Z,97875.56
2023-05-09T13:48:24.883Z,97877.28
2023-05-09T13:50:51.662Z,97880.19
2023-05-09T13:53:18.930Z,97868.44
2023-05-09T13:55:46.372Z,97868.63
2023-05-09T13:58:13.332Z,97870.72
2023-05-09T14:00:40.149Z,97866.59
2023-05-09T14:03:07.322Z,97857.94
2023-05-09T14:05:34.712Z,97850.25
2023-05-09T14:08:01.793Z,97845.63
2023-05-09T14:10:28.811Z,97846.81
2023-05-09T14:12:56.998Z,97836.88
2023-05-09T14:15:24.085Z,97836.84
2023-05-09T14:17:50.984Z,97830.41
2023-05-09T14:20:17.872Z,97823.38
2023-05-09T14:22:44.654Z,97836.94
2023-05-09T14:25:11.269Z,97825.63
2023-05-09T14:27:37.977Z,97833.25
2023-05-09T14:30:05.224Z,97822.50
2023-05-09T14:32:32.730Z,97819.22
2023-05-09T14:34:59.945Z,97823.91
2023-05-09T14:37:26.692Z,97825.81
2023-05-09T14:39:53.338Z,97820.25
2023-05-09T14:42:21.684Z,97809.06
2023-05-09T14:44:48.410Z,97814.72
2023-05-09T14:47:16.900Z,97817.56
2023-05-09T14:49:44.235Z,97807.66
2023-05-09T14:52:11.272Z,97815.56
2023-05-09T14:54:38.195Z,97803.50
2023-05-09T14:57:07.020Z,97806.88
2023-05-09T14:59:36.825Z,97802.47
2023-05-09T15:02:04.658Z,97801.25
2023-05-09T15:04:32.356Z,97806.81
2023-05-09T15:06:59.204Z,97806.88
2023-05-09T15:09:27.908Z,97801.88
2023-05-09T15:11:56.913Z,97795.09
2023-05-09T15:14:25.788Z,97799.28
2023-05-09T15:16:53.112Z,97795.50
2023-05-09T15:19:20.071Z,97796.44
2023-05-09T15:21:49.565Z,97789.16
2023-05-09T15:24:17.359Z,97786.25
2023-05-09T15:26:44.503Z,97784.19
2023-05-09T15:29:11.242Z,97785.97
2023-05-09T15:31:37.967Z,97775.59
2023-05-09T15:34:04.712Z,97773.56
2023-05-09T15:36:33.813Z,97777.81
2023-05-09T15:39:01.730Z,97777.47
2023-05-09T15:41:28.742Z,97773.75
2023-05-09T15:43:56.403Z,97773.13
2023-05-09T15:46:23.608Z,97773.81
2023-05-09T15:48:51.824Z,97773.66
2023-05-09T15:51:19.325Z,97763.69
2023-05-09T15:53:47.145Z,97760.84
2023-05-09T15:56:13.781Z,97764.38
2023-05-09T15:58:42.235Z,97763.66
2023-05-09T16:01:12.753Z,97764.13
2023-05-09T16:03:40.481Z,97766.13
2023-05-09T16:06:07.842Z,97759.09
2023-05-09T16:08:35.136Z,97759.81
2023-05-09T16:11:05.429Z,97764.97
2023-05-09T16:13:35.088Z,97758.13
2023-05-09T16:16:03.245Z,97760.25
2023-05-09T16:18:30.876Z,97753.78
2023-05-09T16:20:58.195Z,97750.28
2023-05-09T16:23:26.003Z,97747.72
2023-05-09T16:25:52.950Z,97744.47
2023-05-09T16:28:23.485Z,97740.19
2023-05-09T16:30:51.798Z,97739.78
2023-05-09T16:33:18.688Z,97748.94
2023-05-09T16:35:46.083Z,97743.25
2023-05-09T16:38:13.282Z,97729.19
2023-05-09T16:40:40.629Z,97739.22
2023-05-09T16:43:07.476Z,97730.38
2023-05-09T16:45:34.191Z,97728.63
2023-05-09T16:48:02.576Z,97727.31
2023-05-09T16:50:29.643Z,97732.91
2023-05-09T16:52:58.095Z,97725.19
2023-05-09T16:55:26.588Z,97725.09
2023-05-09T16:57:55.111Z,97720.44
2023-05-09T17:00:23.172Z,97720.28
2023-05-09T17:02:49.840Z,97719.91
2023-05-09T17:05:17.663Z,97711.66
2023-05-09T17:07:45.692Z,97714.97
2023-05-09T17:10:13.170Z,97708.72
2023-05-09T17:12:39.955Z,97710.53
2023-05-09T17:15:08.593Z,97716.56
2023-05-09T17:17:35.892Z,97714.59
2023-05-09T17:20:09.953Z,97719.25
2023-05-09T17:22:38.639Z,97718.63
2023-05-09T17:25:06.983Z,97712.38
2023-05-09T17:27:34.616Z,97713.66
2023-05-09T17:30:03.323Z,97716.66
2023-05-09T17:32:29.960Z,97719.81
2023-05-09T17:34:57.158Z,97711.88
2023-05-09T17:37:24.404Z,97719.66
2023-05-09T17:39:52.330Z,97717.63
2023-05-09T17:42:20.412Z,97715.00
2023-05-09T17:44:47.666Z,97708.53
2023-05-09T17:47:15.190Z,97715.13
2023-05-09T17:49:42.619Z,97711.28
2023-05-09T17:52:10.341Z,97709.47
2023-05-09T17:54:38.193Z,97714.75
2023-05-09T17:57:05.392Z,97707.56
2023-05-09T17:59:32.354Z,97707.22
2023-05-09T18:01:59.294Z,97704.66
2023-05-09T18:04:27.355Z,97705.94
2023-05-09T18:06:54.451Z,97708.84
2023-05-09T18:09:21.852Z,97703.91
2023-05-09T18:11:49.037Z,97710.72
2023-05-09T18:14:17.426Z,97706.09
2023-05-09T18:16:44.596Z,97709.66
2023-05-09T18:19:11.317Z,97720.16
2023-05-09T18:21:38.725Z,97720.72
2023-05-09T18:24:06.015Z,97721.78
2023-05-09T18:26:33.195Z,97723.81
2023-05-09T18:28:59.968Z,97723.81
2023-05-09T18:31:27.712Z,97729.94
2023-05-09T18:33:55.283Z,97727.28
2023-05-09T18:36:21.920Z,97725.41
2023-05-09T18:38:49.207Z,97727.41
2023-05-09T18:41:17.329Z,97726.50
2023-05-09T18:43:50.412Z,97728.19
2023-05-09T18:46:17.935Z,97722.03
2023-05-09T18:48:45.952Z,97725.22
2023-05-09T18:51:12.882Z,97723.34
2023-05-09T18:53:39.558Z,97727.53
2023-05-09T18:56:06.279Z,97734.50
2023-05-09T18:58:32.929Z,97734.78
2023-05-09T19:00:59.740Z,97731.09
2023-05-09T19:03:27.274Z,97732.06
2023-05-09T19:05:54.759Z,97736.25
2023-05-09T19:08:21.627Z,97727.28
2023-05-09T19:10:48.300Z,97729.63
2023-05-09T19:13:16.444Z,97735.88
2023-05-09T19:15:44.120Z,97735.19
2023-05-09T19:18:11.039Z,97729.13
2023-05-09T19:20:37.918Z,97725.91
2023-05-09T19:23:04.622Z,97724.69
2023-05-09T19:25:33.887Z,97723.59
2023-05-09T19:28:01.341Z,97721.66
2023-05-09T19:30:28.504Z,97712.81
2023-05-09T19:32:55.219Z,97726.34
2023-05-09T19:35:22.332Z,97730.78
2023-05-09T19:37:49.510Z,97731.91
2023-05-09T19:40:16.340Z,97727.19
2023-05-09T19:42:43.416Z,97725.53
2023-05-09T19:45:10.453Z,97729.53
2023-05-09T19:47:38.214Z,97724.16
2023-05-09T19:50:05.581Z,97725.91
2023-05-09T19:52:32.304Z,97725.09
2023-05-09T19:54:58.984Z,97714.16
2023-05-09T19:57:25.735Z,97717.78
2023-05-09T19:59:53.736Z,97709.06
2023-05-09T20:02:20.577Z,97714.03
2023-05-09T20:04:49.861Z,97707.50
2023-05-09T20:07:17.970Z,97715.00
2023-05-09T20:09:45.048Z,97713.63
2023-05-09T20:12:13.018Z,97705.75
2023-05-09T20:14:39.884Z,97706.69
2023-05-09T20:17:06.633Z,97706.41
2023-05-09T20:19:34.111Z,97709.56
2023-05-09T20:22:01.985Z,97707.19
2023-05-09T20:24:28.846Z,97708.00
2023-05-09T20:26:55.651Z,97708.00
2023-05-09T20:29:24.214Z,97699.13
2023-05-09T20:31:51.491Z,97700.78
2023-05-09T20:34:19.636Z,97696.34
2023-05-09T20:36:53.294Z,97706.56
2023-05-09T20:39:21.136Z,97707.66
2023-05-09T20:41:49.618Z,97702.38
2023-05-09T20:44:18.086Z,97701.97
2023-05-09T20:46:45.934Z,97701.16
2023-05-09T20:49:13.418Z,97701.41
2023-05-09T20:51:40.228Z,97694.09
2023-05-09T20:54:07.249Z,97691.84
2023-05-09T20:56:35.993Z,97683.41
2023-05-09T20:59:04.165Z,97687.13
2023-05-09T21:01:32.654Z,97689.06
2023-05-09T21:03:59.464Z,97686.03
2023-05-09T21:06:26.572Z,97686.59
2023-05-09T21:08:53.314Z,97681.78
2023-05-09T21:11:20.257Z,97682.19
2023-05-09T21:13:46.893Z,97667.38
2023-05-09T21:16:13.609Z,97684.00
2023-05-09T21:18:40.261Z,97678.59
2023-05-09T21:21:08.220Z,97679.19
2023-05-09T21:23:35.100Z,97674.66
2023-05-09T21:26:02.537Z,97681.03
2023-05-09T21:28:29.983Z,97679.22
2023-05-09T21:30:56.676Z,97678.97
2023-05-09T21:33:23.313Z,97675.09
2023-05-09T21:35:49.946Z,97676.34
2023-05-09T21:38:16.591Z,97674.00
2023-05-09T21:40:43.244Z,97679.41
2023-05-09T21:43:09.920Z,97681.75
2023-05-09T21:45:36.572Z,97679.00
2023-05-09T21:48:03.445Z,97670.97
2023-05-09T21:50:30.232Z,97672.91
2023-05-09T21:52:57.210Z,97674.44
2023-05-09T21:55:24.014Z,97677.88
2023-05-09T21:57:50.656Z,97665.97
2023-05-09T22:00:17.969Z,97669.59
2023-05-09T22:02:44.992Z,97672.75
2023-05-09T22:05:12.246Z,97672.59
2023-05-09T22:07:39.169Z,97667.34
2023-05-09T22:10:07.068Z,97667.59
2023-05-09T22:12:33.852Z,97661.13
2023-05-09T22:15:00.504Z,97661.50
2023-05-09T22:17:27.212Z,97659.59
2023-05-09T22:19:53.864Z,97657.38
2023-05-09T22:22:21.401Z,97657.09
2023-05-09T22:24:49.648Z,97661.25
2023-05-09T22:27:16.444Z,97645.91
2023-05-09T22:29:43.061Z,97652.25
2023-05-09T22:32:10.039Z,97650.59
2023-05-09T22:34:36.771Z,97652.53
2023-05-09T22:37:03.657Z,97642.72
2023-05-09T22:39:30.906Z,97640.78
2023-05-09T22:41:57.645Z,97645.47
2023-05-09T22:44:24.438Z,97638.41
2023-05-09T22:46:51.079Z,97632.34
2023-05-09T22:49:17.783Z,97638.56
2023-05-09T22:51:44.473Z,97634.84
2023-05-09T22:54:11.130Z,97631.50
2023-05-09T22:56:37.744Z,97623.03
2023-05-09T22:59:04.602Z,97622.22
2023-05-09T23:01:31.609Z,97619.97
2023-05-09T23:03:58.280Z,97616.22
2023-05-09T23:06:25.054Z,97614.53
2023-05-09T23:08:51.811Z,97615.91
2023-05-09T23:11:18.631Z,97614.47
2023-05-09T23:13:45.251Z,97615.94
2023-05-09T23:16:11.978Z,97611.38
2023-05-09T23:18:38.705Z,97606.94
2023-05-09T23:21:05.498Z,97597.94
2023-05-09T23:23:32.138Z,97600.69
2023-05-09T23:26:00.007Z,97596.09
2023-05-09T23:28:26.937Z,97596.63
2023-05-09T23:30:54.502Z,97589.53
2023-05-09T23:33:21.461Z,97582.59
2023-05-09T23:35:48.524Z,97573.44
2023-05-09T23:38:15.284Z,97585.97
2023-05-09T23:40:45.143Z,97577.97
2023-05-09T23:43:12.768Z,97569.56
2023-05-09T23:45:39.458Z,97570.16
2023-05-09T23:48:07.193Z,97576.38
2023-05-09T23:50:33.884Z,97569.22
2023-05-09T23:53:00.597Z,97560.78
2023-05-09T23:55:27.272Z,97561.63
2023-05-09T23:58:43.881Z,97556.69
